sensor_id;sensor_type;location;lat;lon;timestamp;P1;durP1;ratioP1;P2;durP2;ratioP2
52104;SDS011;38103;42.776;23.112;2023-02-13T00:01:15;101.65;;;41.70;;
52104;SDS011;38103;42.776;23.112;2023-02-13T00:03:41;104.13;;;44.15;;
52104;SDS011;38103;42.776;23.112;2023-02-13T00:06:07;95.53;;;43.20;;
52104;SDS011;38103;42.776;23.112;2023-02-13T00:08:32;96.30;;;41.75;;
52104;SDS011;38103;42.776;23.112;2023-02-13T00:10:57;102.97;;;42.70;;
52104;SDS011;38103;42.776;23.112;2023-02-13T00:13:23;102.25;;;43.90;;
52104;SDS011;38103;42.776;23.112;2023-02-13T00:15:55;109.15;;;44.83;;
52104;SDS011;38103;42.776;23.112;2023-02-13T00:18:21;110.72;;;43.40;;
52104;SDS011;38103;42.776;23.112;2023-02-13T00:20:55;106.32;;;43.42;;
52104;SDS011;38103;42.776;23.112;2023-02-13T00:23:21;96.30;;;40.08;;
52104;SDS011;38103;42.776;23.112;2023-02-13T00:25:47;103.93;;;41.53;;
52104;SDS011;38103;42.776;23.112;2023-02-13T00:28:12;103.15;;;40.47;;
52104;SDS011;38103;42.776;23.112;2023-02-13T00:30:38;102.57;;;42.30;;
52104;SDS011;38103;42.776;23.112;2023-02-13T00:33:03;103.30;;;41.00;;
52104;SDS011;38103;42.776;23.112;2023-02-13T00:35:28;105.22;;;44.40;;
52104;SDS011;38103;42.776;23.112;2023-02-13T00:37:54;112.13;;;45.13;;
52104;SDS011;38103;42.776;23.112;2023-02-13T00:40:19;111.00;;;47.05;;
52104;SDS011;38103;42.776;23.112;2023-02-13T00:42:44;103.88;;;43.28;;
52104;SDS011;38103;42.776;23.112;2023-02-13T00:45:10;111.20;;;45.92;;
52104;SDS011;38103;42.776;23.112;2023-02-13T00:47:35;122.45;;;47.10;;
52104;SDS011;38103;42.776;23.112;2023-02-13T00:50:00;113.32;;;46.92;;
52104;SDS011;38103;42.776;23.112;2023-02-13T00:52:26;118.80;;;48.50;;
52104;SDS011;38103;42.776;23.112;2023-02-13T00:54:51;118.68;;;47.15;;
52104;SDS011;38103;42.776;23.112;2023-02-13T00:57:16;119.32;;;45.78;;
52104;SDS011;38103;42.776;23.112;2023-02-13T00:59:42;117.38;;;47.38;;
52104;SDS011;38103;42.776;23.112;2023-02-13T01:02:07;123.47;;;47.72;;
52104;SDS011;38103;42.776;23.112;2023-02-13T01:04:32;112.72;;;49.22;;
52104;SDS011;38103;42.776;23.112;2023-02-13T01:06:58;115.13;;;46.25;;
52104;SDS011;38103;42.776;23.112;2023-02-13T01:09:23;110.35;;;46.50;;
52104;SDS011;38103;42.776;23.112;2023-02-13T01:11:49;107.22;;;44.28;;
52104;SDS011;38103;42.776;23.112;2023-02-13T01:14:14;115.32;;;46.83;;
52104;SDS011;38103;42.776;23.112;2023-02-13T01:16:40;109.60;;;46.42;;
52104;SDS011;38103;42.776;23.112;2023-02-13T01:19:05;107.15;;;44.90;;
52104;SDS011;38103;42.776;23.112;2023-02-13T01:21:30;108.78;;;46.53;;
52104;SDS011;38103;42.776;23.112;2023-02-13T01:23:56;104.50;;;43.38;;
52104;SDS011;38103;42.776;23.112;2023-02-13T01:26:22;115.65;;;46.05;;
52104;SDS011;38103;42.776;23.112;2023-02-13T01:28:51;112.38;;;45.90;;
52104;SDS011;38103;42.776;23.112;2023-02-13T01:31:18;113.50;;;46.45;;
52104;SDS011;38103;42.776;23.112;2023-02-13T01:33:44;109.65;;;46.60;;
52104;SDS011;38103;42.776;23.112;2023-02-13T01:36:10;114.53;;;44.95;;
52104;SDS011;38103;42.776;23.112;2023-02-13T01:38:36;120.35;;;46.22;;
52104;SDS011;38103;42.776;23.112;2023-02-13T01:41:02;106.40;;;43.75;;
52104;SDS011;38103;42.776;23.112;2023-02-13T01:43:48;114.00;;;44.50;;
52104;SDS011;38103;42.776;23.112;2023-02-13T01:46:21;102.85;;;43.42;;
52104;SDS011;38103;42.776;23.112;2023-02-13T01:48:52;105.68;;;43.40;;
52104;SDS011;38103;42.776;23.112;2023-02-13T01:51:22;102.75;;;42.75;;
52104;SDS011;38103;42.776;23.112;2023-02-13T01:53:52;104.75;;;44.80;;
52104;SDS011;38103;42.776;23.112;2023-02-13T01:58:57;113.72;;;46.20;;
52104;SDS011;38103;42.776;23.112;2023-02-13T02:01:27;106.50;;;43.78;;
52104;SDS011;38103;42.776;23.112;2023-02-13T02:04:06;102.32;;;41.95;;
52104;SDS011;38103;42.776;23.112;2023-02-13T02:06:51;106.65;;;43.83;;
52104;SDS011;38103;42.776;23.112;2023-02-13T02:09:22;105.35;;;43.70;;
52104;SDS011;38103;42.776;23.112;2023-02-13T02:12:05;108.88;;;44.03;;
52104;SDS011;38103;42.776;23.112;2023-02-13T02:14:44;110.85;;;45.13;;
52104;SDS011;38103;42.776;23.112;2023-02-13T02:17:09;106.32;;;43.42;;
52104;SDS011;38103;42.776;23.112;2023-02-13T02:19:44;109.65;;;43.42;;
52104;SDS011;38103;42.776;23.112;2023-02-13T02:22:41;118.05;;;44.65;;
52104;SDS011;38103;42.776;23.112;2023-02-13T02:39:01;109.97;;;41.83;;
52104;SDS011;38103;42.776;23.112;2023-02-13T02:48:02;92.93;;;41.40;;
52104;SDS011;38103;42.776;23.112;2023-02-13T02:53:14;110.63;;;43.05;;
52104;SDS011;38103;42.776;23.112;2023-02-13T02:58:24;107.70;;;43.88;;
52104;SDS011;38103;42.776;23.112;2023-02-13T03:01:28;107.22;;;42.30;;
52104;SDS011;38103;42.776;23.112;2023-02-13T03:07:18;111.28;;;45.05;;
52104;SDS011;38103;42.776;23.112;2023-02-13T03:09:45;115.43;;;44.78;;
52104;SDS011;38103;42.776;23.112;2023-02-13T03:12:37;104.13;;;42.85;;
52104;SDS011;38103;42.776;23.112;2023-02-13T03:15:26;110.28;;;44.45;;
52104;SDS011;38103;42.776;23.112;2023-02-13T03:17:53;105.55;;;44.28;;
52104;SDS011;38103;42.776;23.112;2023-02-13T03:21:22;107.57;;;43.05;;
52104;SDS011;38103;42.776;23.112;2023-02-13T03:23:57;112.78;;;43.75;;
52104;SDS011;38103;42.776;23.112;2023-02-13T03:31:54;107.88;;;43.15;;
52104;SDS011;38103;42.776;23.112;2023-02-13T03:34:44;95.45;;;40.00;;
52104;SDS011;38103;42.776;23.112;2023-02-13T03:37:34;112.85;;;42.92;;
52104;SDS011;38103;42.776;23.112;2023-02-13T03:40:21;108.65;;;44.28;;
52104;SDS011;38103;42.776;23.112;2023-02-13T03:43:05;120.47;;;44.90;;
52104;SDS011;38103;42.776;23.112;2023-02-13T03:45:39;123.10;;;47.15;;
52104;SDS011;38103;42.776;23.112;2023-02-13T03:48:18;110.93;;;44.70;;
52104;SDS011;38103;42.776;23.112;2023-02-13T03:51:15;121.18;;;47.47;;
52104;SDS011;38103;42.776;23.112;2023-02-13T03:53:45;123.15;;;48.78;;
52104;SDS011;38103;42.776;23.112;2023-02-13T03:56:14;116.10;;;48.42;;
52104;SDS011;38103;42.776;23.112;2023-02-13T03:59:01;121.95;;;46.55;;
52104;SDS011;38103;42.776;23.112;2023-02-13T04:01:37;111.28;;;45.15;;
52104;SDS011;38103;42.776;23.112;2023-02-13T04:06:45;108.60;;;45.95;;
52104;SDS011;38103;42.776;23.112;2023-02-13T04:09:17;106.85;;;44.00;;
52104;SDS011;38103;42.776;23.112;2023-02-13T04:17:41;101.10;;;43.58;;
52104;SDS011;38103;42.776;23.112;2023-02-13T04:20:11;112.45;;;44.55;;
52104;SDS011;38103;42.776;23.112;2023-02-13T04:22:44;118.68;;;46.95;;
52104;SDS011;38103;42.776;23.112;2023-02-13T04:25:10;109.95;;;44.28;;
52104;SDS011;38103;42.776;23.112;2023-02-13T04:27:38;105.90;;;44.75;;
52104;SDS011;38103;42.776;23.112;2023-02-13T04:30:04;111.15;;;44.22;;
52104;SDS011;38103;42.776;23.112;2023-02-13T04:32:30;106.30;;;43.75;;
52104;SDS011;38103;42.776;23.112;2023-02-13T04:34:55;116.85;;;43.95;;
52104;SDS011;38103;42.776;23.112;2023-02-13T04:37:21;109.00;;;43.30;;
52104;SDS011;38103;42.776;23.112;2023-02-13T04:39:46;105.35;;;42.92;;
52104;SDS011;38103;42.776;23.112;2023-02-13T04:42:12;100.30;;;40.97;;
52104;SDS011;38103;42.776;23.112;2023-02-13T04:44:37;109.10;;;43.30;;
52104;SDS011;38103;42.776;23.112;2023-02-13T04:47:02;103.18;;;43.40;;
52104;SDS011;38103;42.776;23.112;2023-02-13T04:49:28;108.57;;;41.67;;
52104;SDS011;38103;42.776;23.112;2023-02-13T04:51:53;98.90;;;39.08;;
52104;SDS011;38103;42.776;23.112;2023-02-13T04:54:18;94.63;;;39.03;;
52104;SDS011;38103;42.776;23.112;2023-02-13T04:56:44;93.32;;;40.03;;
52104;SDS011;38103;42.776;23.112;2023-02-13T04:59:09;101.35;;;41.38;;
52104;SDS011;38103;42.776;23.112;2023-02-13T05:01:34;107.43;;;41.95;;
52104;SDS011;38103;42.776;23.112;2023-02-13T05:04:00;93.80;;;39.45;;
52104;SDS011;38103;42.776;23.112;2023-02-13T05:06:25;99.38;;;38.78;;
52104;SDS011;38103;42.776;23.112;2023-02-13T05:08:51;95.57;;;37.92;;
52104;SDS011;38103;42.776;23.112;2023-02-13T05:11:16;92.00;;;38.25;;
52104;SDS011;38103;42.776;23.112;2023-02-13T05:13:41;97.10;;;37.28;;
52104;SDS011;38103;42.776;23.112;2023-02-13T05:16:07;97.93;;;39.35;;
52104;SDS011;38103;42.776;23.112;2023-02-13T05:18:32;93.55;;;37.95;;
52104;SDS011;38103;42.776;23.112;2023-02-13T05:20:57;96.00;;;38.72;;
52104;SDS011;38103;42.776;23.112;2023-02-13T05:23:41;91.28;;;38.47;;
52104;SDS011;38103;42.776;23.112;2023-02-13T05:26:07;112.03;;;42.38;;
52104;SDS011;38103;42.776;23.112;2023-02-13T05:28:32;101.07;;;39.47;;
52104;SDS011;38103;42.776;23.112;2023-02-13T05:31:16;96.50;;;41.47;;
52104;SDS011;38103;42.776;23.112;2023-02-13T05:33:41;105.60;;;42.88;;
52104;SDS011;38103;42.776;23.112;2023-02-13T05:36:07;111.60;;;42.67;;
52104;SDS011;38103;42.776;23.112;2023-02-13T05:38:32;117.75;;;42.50;;
52104;SDS011;38103;42.776;23.112;2023-02-13T05:40:58;108.22;;;42.55;;
52104;SDS011;38103;42.776;23.112;2023-02-13T05:43:24;109.05;;;43.22;;
52104;SDS011;38103;42.776;23.112;2023-02-13T05:45:50;112.28;;;44.67;;
52104;SDS011;38103;42.776;23.112;2023-02-13T05:48:16;97.40;;;40.65;;
52104;SDS011;38103;42.776;23.112;2023-02-13T05:50:41;98.47;;;40.15;;
52104;SDS011;38103;42.776;23.112;2023-02-13T05:53:07;105.13;;;42.05;;
52104;SDS011;38103;42.776;23.112;2023-02-13T05:55:32;102.72;;;41.75;;
52104;SDS011;38103;42.776;23.112;2023-02-13T05:57:58;112.78;;;41.03;;
52104;SDS011;38103;42.776;23.112;2023-02-13T06:00:23;110.25;;;42.45;;
52104;SDS011;38103;42.776;23.112;2023-02-13T06:02:49;103.22;;;42.13;;
52104;SDS011;38103;42.776;23.112;2023-02-13T06:05:15;102.53;;;42.60;;
52104;SDS011;38103;42.776;23.112;2023-02-13T06:07:40;118.63;;;45.83;;
52104;SDS011;38103;42.776;23.112;2023-02-13T06:10:06;108.82;;;44.17;;
52104;SDS011;38103;42.776;23.112;2023-02-13T06:12:31;121.95;;;46.38;;
52104;SDS011;38103;42.776;23.112;2023-02-13T06:14:57;114.43;;;46.15;;
52104;SDS011;38103;42.776;23.112;2023-02-13T06:17:22;119.47;;;48.95;;
52104;SDS011;38103;42.776;23.112;2023-02-13T06:19:47;125.90;;;50.50;;
52104;SDS011;38103;42.776;23.112;2023-02-13T06:22:13;111.75;;;47.83;;
52104;SDS011;38103;42.776;23.112;2023-02-13T06:24:38;115.57;;;47.42;;
52104;SDS011;38103;42.776;23.112;2023-02-13T06:27:03;113.00;;;47.42;;
52104;SDS011;38103;42.776;23.112;2023-02-13T06:29:29;118.95;;;47.55;;
52104;SDS011;38103;42.776;23.112;2023-02-13T06:31:56;120.35;;;46.92;;
52104;SDS011;38103;42.776;23.112;2023-02-13T06:34:22;114.93;;;45.22;;
52104;SDS011;38103;42.776;23.112;2023-02-13T06:36:47;105.55;;;44.13;;
52104;SDS011;38103;42.776;23.112;2023-02-13T06:39:13;112.78;;;44.67;;
52104;SDS011;38103;42.776;23.112;2023-02-13T06:41:38;111.13;;;44.58;;
52104;SDS011;38103;42.776;23.112;2023-02-13T06:44:04;101.78;;;44.70;;
52104;SDS011;38103;42.776;23.112;2023-02-13T06:46:29;101.82;;;42.05;;
52104;SDS011;38103;42.776;23.112;2023-02-13T06:48:55;95.85;;;42.03;;
52104;SDS011;38103;42.776;23.112;2023-02-13T06:51:20;101.43;;;40.42;;
52104;SDS011;38103;42.776;23.112;2023-02-13T06:53:45;97.97;;;42.22;;
52104;SDS011;38103;42.776;23.112;2023-02-13T06:56:11;95.90;;;41.83;;
52104;SDS011;38103;42.776;23.112;2023-02-13T06:58:36;94.72;;;41.67;;
52104;SDS011;38103;42.776;23.112;2023-02-13T07:01:04;95.85;;;43.70;;
52104;SDS011;38103;42.776;23.112;2023-02-13T07:03:29;94.60;;;41.88;;
52104;SDS011;38103;42.776;23.112;2023-02-13T07:05:54;96.50;;;40.42;;
52104;SDS011;38103;42.776;23.112;2023-02-13T07:08:20;93.18;;;40.10;;
52104;SDS011;38103;42.776;23.112;2023-02-13T07:10:46;91.80;;;39.20;;
52104;SDS011;38103;42.776;23.112;2023-02-13T07:13:12;89.45;;;39.58;;
52104;SDS011;38103;42.776;23.112;2023-02-13T07:15:37;89.18;;;37.78;;
52104;SDS011;38103;42.776;23.112;2023-02-13T07:18:02;85.47;;;38.20;;
52104;SDS011;38103;42.776;23.112;2023-02-13T07:20:29;88.93;;;37.95;;
52104;SDS011;38103;42.776;23.112;2023-02-13T07:22:58;93.82;;;37.95;;
52104;SDS011;38103;42.776;23.112;2023-02-13T07:25:24;79.60;;;36.42;;
52104;SDS011;38103;42.776;23.112;2023-02-13T07:27:50;86.95;;;37.38;;
52104;SDS011;38103;42.776;23.112;2023-02-13T07:30:15;86.50;;;38.60;;
52104;SDS011;38103;42.776;23.112;2023-02-13T07:32:40;83.68;;;37.88;;
52104;SDS011;38103;42.776;23.112;2023-02-13T07:35:06;89.28;;;37.65;;
52104;SDS011;38103;42.776;23.112;2023-02-13T07:37:31;90.35;;;37.35;;
52104;SDS011;38103;42.776;23.112;2023-02-13T07:39:57;86.13;;;37.60;;
52104;SDS011;38103;42.776;23.112;2023-02-13T07:42:22;85.95;;;37.53;;
52104;SDS011;38103;42.776;23.112;2023-02-13T07:44:48;85.40;;;37.10;;
52104;SDS011;38103;42.776;23.112;2023-02-13T07:47:13;85.43;;;38.92;;
52104;SDS011;38103;42.776;23.112;2023-02-13T07:49:38;81.80;;;36.22;;
52104;SDS011;38103;42.776;23.112;2023-02-13T07:52:04;83.22;;;38.63;;
52104;SDS011;38103;42.776;23.112;2023-02-13T07:54:30;84.65;;;39.00;;
52104;SDS011;38103;42.776;23.112;2023-02-13T07:56:56;82.43;;;37.17;;
52104;SDS011;38103;42.776;23.112;2023-02-13T07:59:22;88.65;;;39.72;;
52104;SDS011;38103;42.776;23.112;2023-02-13T08:01:48;93.13;;;39.83;;
52104;SDS011;38103;42.776;23.112;2023-02-13T08:04:13;92.60;;;39.72;;
52104;SDS011;38103;42.776;23.112;2023-02-13T08:06:39;89.60;;;39.35;;
52104;SDS011;38103;42.776;23.112;2023-02-13T08:09:05;90.35;;;40.03;;
52104;SDS011;38103;42.776;23.112;2023-02-13T08:11:49;100.03;;;40.85;;
52104;SDS011;38103;42.776;23.112;2023-02-13T08:14:23;103.15;;;44.28;;
52104;SDS011;38103;42.776;23.112;2023-02-13T08:16:51;97.57;;;41.55;;
52104;SDS011;38103;42.776;23.112;2023-02-13T08:19:17;96.45;;;43.05;;
52104;SDS011;38103;42.776;23.112;2023-02-13T08:21:42;94.75;;;40.72;;
52104;SDS011;38103;42.776;23.112;2023-02-13T08:24:08;101.32;;;42.33;;
52104;SDS011;38103;42.776;23.112;2023-02-13T08:26:34;86.97;;;40.03;;
52104;SDS011;38103;42.776;23.112;2023-02-13T08:29:00;92.95;;;42.22;;
52104;SDS011;38103;42.776;23.112;2023-02-13T08:31:25;93.10;;;42.53;;
52104;SDS011;38103;42.776;23.112;2023-02-13T08:33:51;92.57;;;40.13;;
52104;SDS011;38103;42.776;23.112;2023-02-13T08:36:16;93.00;;;40.92;;
52104;SDS011;38103;42.776;23.112;2023-02-13T08:38:45;89.15;;;40.72;;
52104;SDS011;38103;42.776;23.112;2023-02-13T08:41:10;87.05;;;39.95;;
52104;SDS011;38103;42.776;23.112;2023-02-13T08:43:36;82.38;;;38.97;;
52104;SDS011;38103;42.776;23.112;2023-02-13T08:46:01;86.53;;;38.30;;
52104;SDS011;38103;42.776;23.112;2023-02-13T08:48:27;85.57;;;38.65;;
52104;SDS011;38103;42.776;23.112;2023-02-13T08:50:53;80.43;;;37.20;;
52104;SDS011;38103;42.776;23.112;2023-02-13T08:53:18;78.10;;;36.97;;
52104;SDS011;38103;42.776;23.112;2023-02-13T08:55:53;78.85;;;35.70;;
52104;SDS011;38103;42.776;23.112;2023-02-13T08:58:20;83.97;;;39.63;;
52104;SDS011;38103;42.776;23.112;2023-02-13T09:00:45;83.03;;;37.85;;
52104;SDS011;38103;42.776;23.112;2023-02-13T09:03:11;92.78;;;40.63;;
52104;SDS011;38103;42.776;23.112;2023-02-13T09:05:36;84.88;;;39.90;;
52104;SDS011;38103;42.776;23.112;2023-02-13T09:08:02;87.35;;;38.55;;
52104;SDS011;38103;42.776;23.112;2023-02-13T09:10:28;85.80;;;37.85;;
52104;SDS011;38103;42.776;23.112;2023-02-13T09:12:54;80.82;;;37.95;;
52104;SDS011;38103;42.776;23.112;2023-02-13T09:15:19;77.68;;;37.42;;
52104;SDS011;38103;42.776;23.112;2023-02-13T09:17:45;71.72;;;33.80;;
52104;SDS011;38103;42.776;23.112;2023-02-13T09:20:11;75.50;;;34.67;;
52104;SDS011;38103;42.776;23.112;2023-02-13T09:22:38;72.95;;;34.63;;
52104;SDS011;38103;42.776;23.112;2023-02-13T09:25:04;74.40;;;35.35;;
52104;SDS011;38103;42.776;23.112;2023-02-13T09:27:29;67.70;;;32.75;;
52104;SDS011;38103;42.776;23.112;2023-02-13T09:29:55;71.53;;;34.45;;
52104;SDS011;38103;42.776;23.112;2023-02-13T09:32:20;72.32;;;33.88;;
52104;SDS011;38103;42.776;23.112;2023-02-13T09:34:46;77.95;;;35.30;;
52104;SDS011;38103;42.776;23.112;2023-02-13T09:37:11;75.28;;;35.55;;
52104;SDS011;38103;42.776;23.112;2023-02-13T09:39:37;71.20;;;33.95;;
52104;SDS011;38103;42.776;23.112;2023-02-13T09:42:05;64.90;;;31.45;;
52104;SDS011;38103;42.776;23.112;2023-02-13T09:44:41;62.63;;;30.35;;
52104;SDS011;38103;42.776;23.112;2023-02-13T09:47:18;63.35;;;31.92;;
52104;SDS011;38103;42.776;23.112;2023-02-13T09:49:53;68.30;;;33.28;;
52104;SDS011;38103;42.776;23.112;2023-02-13T09:52:24;64.10;;;30.02;;
52104;SDS011;38103;42.776;23.112;2023-02-13T09:54:52;59.60;;;29.90;;
52104;SDS011;38103;42.776;23.112;2023-02-13T09:57:33;62.35;;;31.23;;
52104;SDS011;38103;42.776;23.112;2023-02-13T10:00:06;57.67;;;29.23;;
52104;SDS011;38103;42.776;23.112;2023-02-13T10:07:55;63.90;;;30.55;;
52104;SDS011;38103;42.776;23.112;2023-02-13T10:15:40;53.40;;;27.08;;
52104;SDS011;38103;42.776;23.112;2023-02-13T10:18:33;53.50;;;27.50;;
52104;SDS011;38103;42.776;23.112;2023-02-13T10:21:07;52.53;;;27.73;;
52104;SDS011;38103;42.776;23.112;2023-02-13T10:23:38;51.83;;;27.15;;
52104;SDS011;38103;42.776;23.112;2023-02-13T10:26:15;48.47;;;25.63;;
52104;SDS011;38103;42.776;23.112;2023-02-13T10:28:47;53.30;;;25.80;;
52104;SDS011;38103;42.776;23.112;2023-02-13T10:31:41;49.03;;;25.95;;
52104;SDS011;38103;42.776;23.112;2023-02-13T10:34:11;47.28;;;25.08;;
52104;SDS011;38103;42.776;23.112;2023-02-13T10:36:43;48.28;;;26.20;;
52104;SDS011;38103;42.776;23.112;2023-02-13T10:41:53;48.75;;;25.05;;
52104;SDS011;38103;42.776;23.112;2023-02-13T10:55:12;41.60;;;22.38;;
52104;SDS011;38103;42.776;23.112;2023-02-13T11:03:30;36.85;;;19.17;;
52104;SDS011;38103;42.776;23.112;2023-02-13T11:05:56;39.78;;;20.92;;
52104;SDS011;38103;42.776;23.112;2023-02-13T11:08:24;41.85;;;20.25;;
52104;SDS011;38103;42.776;23.112;2023-02-13T11:10:59;35.92;;;18.50;;
52104;SDS011;38103;42.776;23.112;2023-02-13T11:13:26;34.92;;;18.38;;
52104;SDS011;38103;42.776;23.112;2023-02-13T11:15:58;34.08;;;18.83;;
52104;SDS011;38103;42.776;23.112;2023-02-13T11:18:24;39.28;;;19.15;;
52104;SDS011;38103;42.776;23.112;2023-02-13T11:23:51;33.90;;;17.52;;
52104;SDS011;38103;42.776;23.112;2023-02-13T11:26:21;31.95;;;16.63;;
52104;SDS011;38103;42.776;23.112;2023-02-13T11:28:52;30.40;;;15.82;;
52104;SDS011;38103;42.776;23.112;2023-02-13T11:33:48;36.53;;;19.13;;
52104;SDS011;38103;42.776;23.112;2023-02-13T11:36:15;33.08;;;18.10;;
52104;SDS011;38103;42.776;23.112;2023-02-13T11:38:55;32.25;;;16.60;;
52104;SDS011;38103;42.776;23.112;2023-02-13T11:41:25;34.63;;;16.83;;
52104;SDS011;38103;42.776;23.112;2023-02-13T11:43:53;28.95;;;15.25;;
52104;SDS011;38103;42.776;23.112;2023-02-13T11:46:28;30.13;;;15.65;;
52104;SDS011;38103;42.776;23.112;2023-02-13T11:49:11;33.03;;;17.45;;
52104;SDS011;38103;42.776;23.112;2023-02-13T11:51:46;27.95;;;14.55;;
52104;SDS011;38103;42.776;23.112;2023-02-13T11:54:21;29.90;;;15.57;;
52104;SDS011;38103;42.776;23.112;2023-02-13T11:56:51;27.75;;;15.10;;
52104;SDS011;38103;42.776;23.112;2023-02-13T11:59:21;35.05;;;17.75;;
52104;SDS011;38103;42.776;23.112;2023-02-13T12:02:00;61.97;;;29.15;;
52104;SDS011;38103;42.776;23.112;2023-02-13T12:04:37;44.67;;;20.50;;
52104;SDS011;38103;42.776;23.112;2023-02-13T12:07:04;31.95;;;16.02;;
52104;SDS011;38103;42.776;23.112;2023-02-13T12:09:40;29.73;;;16.17;;
52104;SDS011;38103;42.776;23.112;2023-02-13T12:12:09;40.38;;;19.75;;
52104;SDS011;38103;42.776;23.112;2023-02-13T12:14:42;32.30;;;16.52;;
52104;SDS011;38103;42.776;23.112;2023-02-13T12:17:14;32.85;;;17.60;;
52104;SDS011;38103;42.776;23.112;2023-02-13T12:19:45;33.20;;;18.00;;
52104;SDS011;38103;42.776;23.112;2023-02-13T12:22:28;31.67;;;17.40;;
52104;SDS011;38103;42.776;23.112;2023-02-13T12:25:11;31.23;;;16.52;;
52104;SDS011;38103;42.776;23.112;2023-02-13T12:30:51;34.10;;;17.48;;
52104;SDS011;38103;42.776;23.112;2023-02-13T12:38:52;33.10;;;16.90;;
52104;SDS011;38103;42.776;23.112;2023-02-13T12:41:24;32.20;;;17.42;;
52104;SDS011;38103;42.776;23.112;2023-02-13T13:00:48;34.38;;;18.27;;
52104;SDS011;38103;42.776;23.112;2023-02-13T13:06:44;32.25;;;15.95;;
52104;SDS011;38103;42.776;23.112;2023-02-13T13:09:37;33.15;;;17.33;;
52104;SDS011;38103;42.776;23.112;2023-02-13T13:12:16;30.35;;;16.48;;
52104;SDS011;38103;42.776;23.112;2023-02-13T13:17:33;33.97;;;18.60;;
52104;SDS011;38103;42.776;23.112;2023-02-13T13:28:43;32.28;;;17.35;;
52104;SDS011;38103;42.776;23.112;2023-02-13T13:31:13;31.50;;;16.23;;
52104;SDS011;38103;42.776;23.112;2023-02-13T13:33:39;28.08;;;15.43;;
52104;SDS011;38103;42.776;23.112;2023-02-13T13:38:55;28.42;;;15.98;;
52104;SDS011;38103;42.776;23.112;2023-02-13T13:41:45;32.40;;;16.00;;
52104;SDS011;38103;42.776;23.112;2023-02-13T13:44:23;35.47;;;19.02;;
52104;SDS011;38103;42.776;23.112;2023-02-13T13:54:51;29.50;;;15.60;;
52104;SDS011;38103;42.776;23.112;2023-02-13T13:57:21;30.73;;;15.85;;
52104;SDS011;38103;42.776;23.112;2023-02-13T14:04:43;28.73;;;15.88;;
52104;SDS011;38103;42.776;23.112;2023-02-13T14:07:24;29.80;;;14.82;;
52104;SDS011;38103;42.776;23.112;2023-02-13T14:09:49;32.17;;;16.50;;
52104;SDS011;38103;42.776;23.112;2023-02-13T14:14:50;27.58;;;14.68;;
52104;SDS011;38103;42.776;23.112;2023-02-13T14:17:46;29.23;;;14.57;;
52104;SDS011;38103;42.776;23.112;2023-02-13T14:22:51;25.58;;;13.40;;
52104;SDS011;38103;42.776;23.112;2023-02-13T14:25:26;26.67;;;13.88;;
52104;SDS011;38103;42.776;23.112;2023-02-13T14:27:59;27.45;;;14.90;;
52104;SDS011;38103;42.776;23.112;2023-02-13T14:30:30;29.23;;;15.20;;
52104;SDS011;38103;42.776;23.112;2023-02-13T14:32:59;28.40;;;14.45;;
52104;SDS011;38103;42.776;23.112;2023-02-13T14:35:28;32.00;;;17.30;;
52104;SDS011;38103;42.776;23.112;2023-02-13T14:37:57;25.63;;;14.52;;
52104;SDS011;38103;42.776;23.112;2023-02-13T14:40:31;29.48;;;14.85;;
52104;SDS011;38103;42.776;23.112;2023-02-13T14:43:20;27.60;;;14.35;;
52104;SDS011;38103;42.776;23.112;2023-02-13T14:46:05;27.60;;;14.88;;
52104;SDS011;38103;42.776;23.112;2023-02-13T14:48:57;32.53;;;16.95;;
52104;SDS011;38103;42.776;23.112;2023-02-13T14:54:24;29.60;;;15.35;;
52104;SDS011;38103;42.776;23.112;2023-02-13T14:56:59;31.75;;;17.48;;
52104;SDS011;38103;42.776;23.112;2023-02-13T14:59:31;28.95;;;15.93;;
52104;SDS011;38103;42.776;23.112;2023-02-13T15:02:04;31.58;;;16.65;;
52104;SDS011;38103;42.776;23.112;2023-02-13T15:04:53;31.00;;;17.00;;
52104;SDS011;38103;42.776;23.112;2023-02-13T15:07:25;29.17;;;15.18;;
52104;SDS011;38103;42.776;23.112;2023-02-13T15:09:55;27.77;;;15.23;;
52104;SDS011;38103;42.776;23.112;2023-02-13T15:12:31;33.38;;;15.70;;
52104;SDS011;38103;42.776;23.112;2023-02-13T15:14:58;31.88;;;16.70;;
52104;SDS011;38103;42.776;23.112;2023-02-13T15:17:29;27.65;;;15.38;;
52104;SDS011;38103;42.776;23.112;2023-02-13T15:20:23;31.33;;;16.13;;
52104;SDS011;38103;42.776;23.112;2023-02-13T15:22:49;31.42;;;16.13;;
52104;SDS011;38103;42.776;23.112;2023-02-13T15:28:07;31.42;;;16.48;;
52104;SDS011;38103;42.776;23.112;2023-02-13T15:30:40;31.15;;;16.25;;
52104;SDS011;38103;42.776;23.112;2023-02-13T15:33:15;29.73;;;15.48;;
52104;SDS011;38103;42.776;23.112;2023-02-13T15:35:43;33.00;;;15.60;;
52104;SDS011;38103;42.776;23.112;2023-02-13T15:40:52;33.53;;;18.35;;
52104;SDS011;38103;42.776;23.112;2023-02-13T15:43:34;30.90;;;17.35;;
52104;SDS011;38103;42.776;23.112;2023-02-13T15:46:03;34.25;;;16.92;;
52104;SDS011;38103;42.776;23.112;2023-02-13T15:48:31;31.23;;;16.80;;
52104;SDS011;38103;42.776;23.112;2023-02-13T15:50:58;34.78;;;18.52;;
52104;SDS011;38103;42.776;23.112;2023-02-13T15:53:24;37.28;;;19.67;;
52104;SDS011;38103;42.776;23.112;2023-02-13T15:56:00;35.85;;;18.73;;
52104;SDS011;38103;42.776;23.112;2023-02-13T15:58:28;34.90;;;18.90;;
52104;SDS011;38103;42.776;23.112;2023-02-13T16:00:58;31.02;;;17.58;;
52104;SDS011;38103;42.776;23.112;2023-02-13T16:03:28;34.83;;;18.65;;
52104;SDS011;38103;42.776;23.112;2023-02-13T16:05:55;33.50;;;18.63;;
52104;SDS011;38103;42.776;23.112;2023-02-13T16:08:31;37.97;;;19.50;;
52104;SDS011;38103;42.776;23.112;2023-02-13T16:16:42;38.85;;;21.75;;
52104;SDS011;38103;42.776;23.112;2023-02-13T16:24:54;38.95;;;21.40;;
52104;SDS011;38103;42.776;23.112;2023-02-13T16:27:27;38.30;;;21.15;;
52104;SDS011;38103;42.776;23.112;2023-02-13T16:29:54;41.30;;;22.00;;
52104;SDS011;38103;42.776;23.112;2023-02-13T16:32:23;44.78;;;22.27;;
52104;SDS011;38103;42.776;23.112;2023-02-13T16:34:52;41.65;;;21.77;;
52104;SDS011;38103;42.776;23.112;2023-02-13T16:37:29;44.55;;;23.77;;
52104;SDS011;38103;42.776;23.112;2023-02-13T16:40:18;43.47;;;23.95;;
52104;SDS011;38103;42.776;23.112;2023-02-13T16:48:46;42.45;;;22.00;;
52104;SDS011;38103;42.776;23.112;2023-02-13T16:51:28;43.08;;;22.65;;
52104;SDS011;38103;42.776;23.112;2023-02-13T16:57:21;41.10;;;22.02;;
52104;SDS011;38103;42.776;23.112;2023-02-13T16:59:57;40.72;;;21.58;;
52104;SDS011;38103;42.776;23.112;2023-02-13T17:02:31;42.70;;;22.02;;
52104;SDS011;38103;42.776;23.112;2023-02-13T17:07:36;43.83;;;23.15;;
52104;SDS011;38103;42.776;23.112;2023-02-13T17:12:43;42.85;;;21.88;;
52104;SDS011;38103;42.776;23.112;2023-02-13T17:15:10;42.63;;;22.17;;
52104;SDS011;38103;42.776;23.112;2023-02-13T17:17:38;41.15;;;22.38;;